Airfield :
LOGIN :

Register | Disclaimer

   EN    FR    IT 

 










Legend :    VFR   Marginal VFR   IFR   Intensive IFR   Very Intensive IFR
Visi :
Ceiling :
>= 8 km
>= 3000ft
5 to 8 km
1000 to 3000 ft
1500m to 5 km
500 to 1000 ft
800 to 1500m
200 to 500 ft
< 800m
< 200 ft
Symbols :   Thunderstorms  Fog  Heavy snow  Heavy precipitations  Wind > 20 kt
SIGMETs :     Misc.  Thunderstorms  Icing  Turbulence  Mountain Waves  Volcanic Ashes







- Airport Elevation : 52 ft
- IATA code : RNN


EKRN - Bornholm Ronne

CURRENT METAR :
  • 262150Z AUTO 32001KT 9999 NCD 00/M02 Q1023

EXPIRED METARs :
  • 262120Z AUTO 30003KT 9999 NCD 01/M03 Q1023
  • 262050Z AUTO 30002KT 9999 SCT240/// 01/M02 Q1023
  • 262020Z AUTO 00000KT 9999 SCT140/// 02/M02 Q1023
  • 261950Z AUTO 05001KT 9999 BKN150/// 02/M01 Q1022
  • 261920Z AUTO 00000KT 9999 BKN160/// 03/M02 Q1022

TAF TAF EKRN
Valid from the 26 at 18:00 until the 26 at 23:00 UTC


261712Z 2618/2623 VRB03KT 9999 FEW030
No reported NOTAMs for that airfield.



MET'MAP, your aeronautical weather chart ! - Copyright ORBIFLY December 2007 - Disclaimer

ORBIFLY MET'MAP TEAM :

Programming & Development : Alexandra Zaïnal
Concept & Development : Baudouin d'Aumeries
Co-Development & Prog : Marc-Olivier Méhu
Technical & hardware support : Manuel Goepfert

Contact : metmap@orbifly.com




SOURCES & CREDITS :

   NOAA